sensor_id;sensor_type;location;lat;lon;timestamp;P1;durP1;ratioP1;P2;durP2;ratioP2
20758;SDS011;10539;53.686;9.158;2023-05-19T00:00:42;7.83;;;4.63;;
20758;SDS011;10539;53.686;9.158;2023-05-19T00:03:11;8.93;;;4.00;;
20758;SDS011;10539;53.686;9.158;2023-05-19T00:05:38;15.80;;;4.20;;
20758;SDS011;10539;53.686;9.158;2023-05-19T00:08:10;11.40;;;4.47;;
20758;SDS011;10539;53.686;9.158;2023-05-19T00:10:37;11.67;;;4.10;;
20758;SDS011;10539;53.686;9.158;2023-05-19T00:13:03;10.07;;;3.73;;
20758;SDS011;10539;53.686;9.158;2023-05-19T00:15:29;4.93;;;3.50;;
20758;SDS011;10539;53.686;9.158;2023-05-19T00:17:55;9.17;;;3.50;;
20758;SDS011;10539;53.686;9.158;2023-05-19T00:20:21;9.00;;;3.50;;
20758;SDS011;10539;53.686;9.158;2023-05-19T00:22:46;8.90;;;3.63;;
20758;SDS011;10539;53.686;9.158;2023-05-19T00:25:12;11.10;;;4.27;;
20758;SDS011;10539;53.686;9.158;2023-05-19T00:27:38;12.13;;;3.67;;
20758;SDS011;10539;53.686;9.158;2023-05-19T00:30:04;10.50;;;3.90;;
20758;SDS011;10539;53.686;9.158;2023-05-19T00:32:30;8.10;;;4.13;;
20758;SDS011;10539;53.686;9.158;2023-05-19T00:34:56;9.67;;;3.70;;
20758;SDS011;10539;53.686;9.158;2023-05-19T00:37:22;10.47;;;3.80;;
20758;SDS011;10539;53.686;9.158;2023-05-19T00:39:48;6.50;;;3.33;;
20758;SDS011;10539;53.686;9.158;2023-05-19T00:42:14;10.87;;;3.40;;
20758;SDS011;10539;53.686;9.158;2023-05-19T00:44:40;7.70;;;4.00;;
20758;SDS011;10539;53.686;9.158;2023-05-19T00:47:06;11.10;;;3.93;;
20758;SDS011;10539;53.686;9.158;2023-05-19T00:49:32;10.67;;;3.90;;
20758;SDS011;10539;53.686;9.158;2023-05-19T00:52:00;9.60;;;3.30;;
20758;SDS011;10539;53.686;9.158;2023-05-19T00:54:26;9.30;;;3.57;;
20758;SDS011;10539;53.686;9.158;2023-05-19T00:56:53;8.53;;;3.73;;
20758;SDS011;10539;53.686;9.158;2023-05-19T00:59:20;7.00;;;3.40;;
20758;SDS011;10539;53.686;9.158;2023-05-19T01:01:46;11.17;;;3.63;;
20758;SDS011;10539;53.686;9.158;2023-05-19T01:04:17;8.80;;;3.97;;
20758;SDS011;10539;53.686;9.158;2023-05-19T01:06:47;10.70;;;4.10;;
20758;SDS011;10539;53.686;9.158;2023-05-19T01:09:20;8.17;;;3.90;;
20758;SDS011;10539;53.686;9.158;2023-05-19T01:11:47;9.03;;;3.60;;
20758;SDS011;10539;53.686;9.158;2023-05-19T01:14:13;11.37;;;3.93;;
20758;SDS011;10539;53.686;9.158;2023-05-19T01:16:41;9.97;;;4.00;;
20758;SDS011;10539;53.686;9.158;2023-05-19T01:19:27;11.13;;;3.90;;
20758;SDS011;10539;53.686;9.158;2023-05-19T01:22:21;8.83;;;3.97;;
20758;SDS011;10539;53.686;9.158;2023-05-19T01:28:14;9.10;;;3.90;;
20758;SDS011;10539;53.686;9.158;2023-05-19T01:30:52;12.53;;;4.07;;
20758;SDS011;10539;53.686;9.158;2023-05-19T01:33:20;8.67;;;3.87;;
20758;SDS011;10539;53.686;9.158;2023-05-19T01:35:47;9.10;;;3.77;;
20758;SDS011;10539;53.686;9.158;2023-05-19T01:38:15;7.83;;;3.90;;
20758;SDS011;10539;53.686;9.158;2023-05-19T01:40:42;8.57;;;4.17;;
20758;SDS011;10539;53.686;9.158;2023-05-19T01:43:11;9.17;;;3.90;;
20758;SDS011;10539;53.686;9.158;2023-05-19T01:45:39;9.83;;;4.00;;
20758;SDS011;10539;53.686;9.158;2023-05-19T01:48:05;10.27;;;4.20;;
20758;SDS011;10539;53.686;9.158;2023-05-19T01:50:31;10.77;;;4.10;;
20758;SDS011;10539;53.686;9.158;2023-05-19T01:52:58;11.13;;;4.83;;
20758;SDS011;10539;53.686;9.158;2023-05-19T01:55:25;13.43;;;4.73;;
20758;SDS011;10539;53.686;9.158;2023-05-19T01:57:57;6.70;;;3.97;;
20758;SDS011;10539;53.686;9.158;2023-05-19T02:09:11;7.73;;;4.13;;
20758;SDS011;10539;53.686;9.158;2023-05-19T02:11:51;10.03;;;5.00;;
20758;SDS011;10539;53.686;9.158;2023-05-19T02:17:15;9.40;;;4.27;;
20758;SDS011;10539;53.686;9.158;2023-05-19T02:19:44;14.03;;;4.80;;
20758;SDS011;10539;53.686;9.158;2023-05-19T02:22:10;9.20;;;4.33;;
20758;SDS011;10539;53.686;9.158;2023-05-19T02:24:36;10.23;;;4.40;;
20758;SDS011;10539;53.686;9.158;2023-05-19T02:27:01;12.17;;;4.97;;
20758;SDS011;10539;53.686;9.158;2023-05-19T02:29:27;12.97;;;4.80;;
20758;SDS011;10539;53.686;9.158;2023-05-19T02:31:53;8.97;;;4.20;;
20758;SDS011;10539;53.686;9.158;2023-05-19T02:34:19;10.03;;;4.50;;
20758;SDS011;10539;53.686;9.158;2023-05-19T02:36:45;12.13;;;4.70;;
20758;SDS011;10539;53.686;9.158;2023-05-19T02:39:14;11.13;;;3.87;;
20758;SDS011;10539;53.686;9.158;2023-05-19T02:41:39;14.73;;;4.53;;
20758;SDS011;10539;53.686;9.158;2023-05-19T02:44:05;14.07;;;4.80;;
20758;SDS011;10539;53.686;9.158;2023-05-19T02:46:31;14.57;;;4.80;;
20758;SDS011;10539;53.686;9.158;2023-05-19T02:48:57;15.13;;;5.03;;
20758;SDS011;10539;53.686;9.158;2023-05-19T02:51:23;13.10;;;5.23;;
20758;SDS011;10539;53.686;9.158;2023-05-19T02:53:49;13.30;;;4.53;;
20758;SDS011;10539;53.686;9.158;2023-05-19T02:56:15;12.77;;;4.77;;
20758;SDS011;10539;53.686;9.158;2023-05-19T02:58:41;12.33;;;5.03;;
20758;SDS011;10539;53.686;9.158;2023-05-19T03:01:07;10.60;;;5.23;;
20758;SDS011;10539;53.686;9.158;2023-05-19T03:03:33;11.07;;;5.20;;
20758;SDS011;10539;53.686;9.158;2023-05-19T03:05:59;15.57;;;4.77;;
20758;SDS011;10539;53.686;9.158;2023-05-19T03:08:26;16.03;;;5.27;;
20758;SDS011;10539;53.686;9.158;2023-05-19T03:10:52;13.97;;;5.77;;
20758;SDS011;10539;53.686;9.158;2023-05-19T03:13:17;12.33;;;5.50;;
20758;SDS011;10539;53.686;9.158;2023-05-19T03:15:43;11.60;;;5.00;;
20758;SDS011;10539;53.686;9.158;2023-05-19T03:18:09;11.57;;;5.30;;
20758;SDS011;10539;53.686;9.158;2023-05-19T03:20:36;17.50;;;5.53;;
20758;SDS011;10539;53.686;9.158;2023-05-19T03:23:02;13.57;;;5.73;;
20758;SDS011;10539;53.686;9.158;2023-05-19T03:25:28;13.93;;;5.23;;
20758;SDS011;10539;53.686;9.158;2023-05-19T03:27:54;11.30;;;5.00;;
20758;SDS011;10539;53.686;9.158;2023-05-19T03:30:20;14.40;;;5.90;;
20758;SDS011;10539;53.686;9.158;2023-05-19T03:32:46;13.17;;;5.33;;
20758;SDS011;10539;53.686;9.158;2023-05-19T03:35:12;15.23;;;6.27;;
20758;SDS011;10539;53.686;9.158;2023-05-19T03:37:37;11.07;;;5.67;;
20758;SDS011;10539;53.686;9.158;2023-05-19T03:40:03;10.47;;;5.27;;
20758;SDS011;10539;53.686;9.158;2023-05-19T03:42:30;13.03;;;5.53;;
20758;SDS011;10539;53.686;9.158;2023-05-19T03:44:55;14.43;;;6.13;;
20758;SDS011;10539;53.686;9.158;2023-05-19T03:47:21;18.03;;;5.10;;
20758;SDS011;10539;53.686;9.158;2023-05-19T03:49:47;10.13;;;5.10;;
20758;SDS011;10539;53.686;9.158;2023-05-19T03:52:12;10.80;;;5.70;;
20758;SDS011;10539;53.686;9.158;2023-05-19T03:54:38;10.27;;;5.87;;
20758;SDS011;10539;53.686;9.158;2023-05-19T03:57:06;15.63;;;5.80;;
20758;SDS011;10539;53.686;9.158;2023-05-19T03:59:33;13.10;;;5.60;;
20758;SDS011;10539;53.686;9.158;2023-05-19T04:01:59;13.97;;;5.83;;
20758;SDS011;10539;53.686;9.158;2023-05-19T04:04:25;10.70;;;5.97;;
20758;SDS011;10539;53.686;9.158;2023-05-19T04:06:50;13.47;;;5.77;;
20758;SDS011;10539;53.686;9.158;2023-05-19T04:09:16;11.87;;;5.50;;
20758;SDS011;10539;53.686;9.158;2023-05-19T04:11:43;12.90;;;5.80;;
20758;SDS011;10539;53.686;9.158;2023-05-19T04:14:10;11.83;;;5.80;;
20758;SDS011;10539;53.686;9.158;2023-05-19T04:16:35;13.30;;;5.83;;
20758;SDS011;10539;53.686;9.158;2023-05-19T04:19:01;13.60;;;5.83;;
20758;SDS011;10539;53.686;9.158;2023-05-19T04:21:27;12.27;;;5.37;;
20758;SDS011;10539;53.686;9.158;2023-05-19T04:23:53;14.00;;;5.67;;
20758;SDS011;10539;53.686;9.158;2023-05-19T04:26:18;14.93;;;6.17;;
20758;SDS011;10539;53.686;9.158;2023-05-19T04:28:46;10.37;;;5.53;;
20758;SDS011;10539;53.686;9.158;2023-05-19T04:31:13;13.37;;;5.70;;
20758;SDS011;10539;53.686;9.158;2023-05-19T04:33:39;11.90;;;5.93;;
20758;SDS011;10539;53.686;9.158;2023-05-19T04:36:06;12.30;;;5.97;;
20758;SDS011;10539;53.686;9.158;2023-05-19T04:38:38;18.30;;;6.23;;
20758;SDS011;10539;53.686;9.158;2023-05-19T04:41:07;12.80;;;5.43;;
20758;SDS011;10539;53.686;9.158;2023-05-19T04:43:36;13.30;;;5.07;;
20758;SDS011;10539;53.686;9.158;2023-05-19T04:46:11;8.27;;;5.63;;
20758;SDS011;10539;53.686;9.158;2023-05-19T04:48:37;12.33;;;5.73;;
20758;SDS011;10539;53.686;9.158;2023-05-19T04:51:04;11.73;;;5.83;;
20758;SDS011;10539;53.686;9.158;2023-05-19T04:53:30;11.63;;;5.73;;
20758;SDS011;10539;53.686;9.158;2023-05-19T04:55:56;9.27;;;5.50;;
20758;SDS011;10539;53.686;9.158;2023-05-19T04:58:22;16.87;;;6.53;;
20758;SDS011;10539;53.686;9.158;2023-05-19T05:00:51;14.73;;;5.80;;
20758;SDS011;10539;53.686;9.158;2023-05-19T05:03:24;16.57;;;6.20;;
20758;SDS011;10539;53.686;9.158;2023-05-19T05:05:50;13.17;;;5.73;;
20758;SDS011;10539;53.686;9.158;2023-05-19T05:08:16;11.20;;;5.80;;
20758;SDS011;10539;53.686;9.158;2023-05-19T05:10:47;16.60;;;6.33;;
20758;SDS011;10539;53.686;9.158;2023-05-19T05:13:15;10.87;;;5.43;;
20758;SDS011;10539;53.686;9.158;2023-05-19T05:15:41;16.77;;;5.87;;
20758;SDS011;10539;53.686;9.158;2023-05-19T05:18:07;14.13;;;6.23;;
20758;SDS011;10539;53.686;9.158;2023-05-19T05:20:33;13.00;;;5.57;;
20758;SDS011;10539;53.686;9.158;2023-05-19T05:22:59;15.33;;;6.27;;
20758;SDS011;10539;53.686;9.158;2023-05-19T05:25:25;18.53;;;5.90;;
20758;SDS011;10539;53.686;9.158;2023-05-19T05:27:51;18.30;;;6.20;;
20758;SDS011;10539;53.686;9.158;2023-05-19T05:30:17;12.17;;;5.30;;
20758;SDS011;10539;53.686;9.158;2023-05-19T05:32:42;9.77;;;5.43;;
20758;SDS011;10539;53.686;9.158;2023-05-19T05:35:08;11.30;;;5.87;;
20758;SDS011;10539;53.686;9.158;2023-05-19T05:37:34;10.33;;;5.93;;
20758;SDS011;10539;53.686;9.158;2023-05-19T05:40:00;13.57;;;6.13;;
20758;SDS011;10539;53.686;9.158;2023-05-19T05:42:25;11.33;;;5.97;;
20758;SDS011;10539;53.686;9.158;2023-05-19T05:44:51;13.50;;;5.90;;
20758;SDS011;10539;53.686;9.158;2023-05-19T05:47:17;12.03;;;6.17;;
20758;SDS011;10539;53.686;9.158;2023-05-19T05:49:43;12.70;;;5.87;;
20758;SDS011;10539;53.686;9.158;2023-05-19T05:52:12;19.00;;;5.83;;
20758;SDS011;10539;53.686;9.158;2023-05-19T05:54:39;13.47;;;5.77;;
20758;SDS011;10539;53.686;9.158;2023-05-19T05:57:05;12.07;;;5.77;;
20758;SDS011;10539;53.686;9.158;2023-05-19T05:59:31;12.47;;;5.47;;
20758;SDS011;10539;53.686;9.158;2023-05-19T06:01:57;18.17;;;5.53;;
20758;SDS011;10539;53.686;9.158;2023-05-19T06:04:23;12.50;;;4.93;;
20758;SDS011;10539;53.686;9.158;2023-05-19T06:06:49;12.60;;;5.40;;
20758;SDS011;10539;53.686;9.158;2023-05-19T06:09:16;12.37;;;5.23;;
20758;SDS011;10539;53.686;9.158;2023-05-19T06:11:42;14.90;;;5.63;;
20758;SDS011;10539;53.686;9.158;2023-05-19T06:14:08;15.67;;;5.50;;
20758;SDS011;10539;53.686;9.158;2023-05-19T06:16:34;11.20;;;5.13;;
20758;SDS011;10539;53.686;9.158;2023-05-19T06:19:00;14.47;;;4.93;;
20758;SDS011;10539;53.686;9.158;2023-05-19T06:21:25;9.97;;;5.00;;
20758;SDS011;10539;53.686;9.158;2023-05-19T06:23:52;11.43;;;5.27;;
20758;SDS011;10539;53.686;9.158;2023-05-19T06:26:17;15.33;;;5.43;;
20758;SDS011;10539;53.686;9.158;2023-05-19T06:28:43;11.57;;;5.07;;
20758;SDS011;10539;53.686;9.158;2023-05-19T06:31:09;15.03;;;4.60;;
20758;SDS011;10539;53.686;9.158;2023-05-19T06:33:35;14.87;;;4.90;;
20758;SDS011;10539;53.686;9.158;2023-05-19T06:36:00;8.87;;;4.77;;
20758;SDS011;10539;53.686;9.158;2023-05-19T06:38:26;8.83;;;4.63;;
20758;SDS011;10539;53.686;9.158;2023-05-19T06:40:52;9.90;;;4.70;;
20758;SDS011;10539;53.686;9.158;2023-05-19T06:43:18;12.33;;;4.87;;
20758;SDS011;10539;53.686;9.158;2023-05-19T06:45:43;9.40;;;3.93;;
20758;SDS011;10539;53.686;9.158;2023-05-19T06:48:09;10.50;;;3.53;;
20758;SDS011;10539;53.686;9.158;2023-05-19T06:50:35;10.63;;;3.70;;
20758;SDS011;10539;53.686;9.158;2023-05-19T06:53:00;8.50;;;3.33;;
20758;SDS011;10539;53.686;9.158;2023-05-19T06:55:26;8.00;;;3.60;;
20758;SDS011;10539;53.686;9.158;2023-05-19T06:57:52;7.43;;;3.20;;
20758;SDS011;10539;53.686;9.158;2023-05-19T07:00:17;8.87;;;3.43;;
20758;SDS011;10539;53.686;9.158;2023-05-19T07:02:43;11.87;;;3.77;;
20758;SDS011;10539;53.686;9.158;2023-05-19T07:05:09;6.43;;;2.90;;
20758;SDS011;10539;53.686;9.158;2023-05-19T07:07:34;9.17;;;3.30;;
20758;SDS011;10539;53.686;9.158;2023-05-19T07:10:00;9.40;;;3.30;;
20758;SDS011;10539;53.686;9.158;2023-05-19T07:12:26;12.17;;;3.87;;
20758;SDS011;10539;53.686;9.158;2023-05-19T07:14:52;12.47;;;3.40;;
20758;SDS011;10539;53.686;9.158;2023-05-19T07:17:17;7.77;;;3.43;;
20758;SDS011;10539;53.686;9.158;2023-05-19T07:19:43;9.90;;;3.83;;
20758;SDS011;10539;53.686;9.158;2023-05-19T07:22:09;10.67;;;4.13;;
20758;SDS011;10539;53.686;9.158;2023-05-19T07:24:35;10.10;;;3.87;;
20758;SDS011;10539;53.686;9.158;2023-05-19T07:27:01;9.50;;;3.90;;
20758;SDS011;10539;53.686;9.158;2023-05-19T07:29:27;11.43;;;4.00;;
20758;SDS011;10539;53.686;9.158;2023-05-19T07:31:53;11.83;;;3.63;;
20758;SDS011;10539;53.686;9.158;2023-05-19T07:34:22;11.33;;;3.80;;
20758;SDS011;10539;53.686;9.158;2023-05-19T07:36:48;7.23;;;3.80;;
20758;SDS011;10539;53.686;9.158;2023-05-19T07:39:15;11.10;;;4.00;;
20758;SDS011;10539;53.686;9.158;2023-05-19T07:41:41;10.30;;;4.97;;
20758;SDS011;10539;53.686;9.158;2023-05-19T07:44:07;9.97;;;4.07;;
20758;SDS011;10539;53.686;9.158;2023-05-19T07:46:33;11.97;;;4.13;;
20758;SDS011;10539;53.686;9.158;2023-05-19T07:48:59;15.03;;;4.67;;
20758;SDS011;10539;53.686;9.158;2023-05-19T07:51:25;10.83;;;3.73;;
20758;SDS011;10539;53.686;9.158;2023-05-19T07:53:50;10.43;;;3.87;;
20758;SDS011;10539;53.686;9.158;2023-05-19T07:56:16;10.67;;;3.67;;
20758;SDS011;10539;53.686;9.158;2023-05-19T07:58:42;10.37;;;3.83;;
20758;SDS011;10539;53.686;9.158;2023-05-19T08:01:08;9.53;;;3.90;;
20758;SDS011;10539;53.686;9.158;2023-05-19T08:03:34;6.23;;;2.80;;
20758;SDS011;10539;53.686;9.158;2023-05-19T08:05:59;11.13;;;3.43;;
20758;SDS011;10539;53.686;9.158;2023-05-19T08:08:25;9.67;;;3.50;;
20758;SDS011;10539;53.686;9.158;2023-05-19T08:10:51;10.23;;;3.63;;
20758;SDS011;10539;53.686;9.158;2023-05-19T08:13:16;11.20;;;4.17;;
20758;SDS011;10539;53.686;9.158;2023-05-19T08:15:42;5.53;;;3.20;;
20758;SDS011;10539;53.686;9.158;2023-05-19T08:18:08;13.30;;;3.60;;
20758;SDS011;10539;53.686;9.158;2023-05-19T08:20:34;11.30;;;3.37;;
20758;SDS011;10539;53.686;9.158;2023-05-19T08:22:59;10.17;;;3.47;;
20758;SDS011;10539;53.686;9.158;2023-05-19T08:25:25;8.97;;;3.33;;
20758;SDS011;10539;53.686;9.158;2023-05-19T08:27:51;9.90;;;3.67;;
20758;SDS011;10539;53.686;9.158;2023-05-19T08:30:16;9.47;;;3.90;;
20758;SDS011;10539;53.686;9.158;2023-05-19T08:32:42;9.70;;;3.87;;
20758;SDS011;10539;53.686;9.158;2023-05-19T08:35:08;10.47;;;4.27;;
20758;SDS011;10539;53.686;9.158;2023-05-19T08:37:34;10.07;;;3.33;;
20758;SDS011;10539;53.686;9.158;2023-05-19T08:40:02;8.70;;;3.70;;
20758;SDS011;10539;53.686;9.158;2023-05-19T08:42:29;11.67;;;3.80;;
20758;SDS011;10539;53.686;9.158;2023-05-19T08:44:57;7.43;;;4.00;;
20758;SDS011;10539;53.686;9.158;2023-05-19T08:47:23;7.53;;;3.20;;
20758;SDS011;10539;53.686;9.158;2023-05-19T08:49:52;8.57;;;3.57;;
20758;SDS011;10539;53.686;9.158;2023-05-19T08:53:11;8.67;;;4.00;;
20758;SDS011;10539;53.686;9.158;2023-05-19T08:58:00;9.63;;;3.20;;
20758;SDS011;10539;53.686;9.158;2023-05-19T09:00:28;12.17;;;3.53;;
20758;SDS011;10539;53.686;9.158;2023-05-19T09:02:54;8.10;;;3.00;;
20758;SDS011;10539;53.686;9.158;2023-05-19T09:05:21;6.77;;;3.13;;
20758;SDS011;10539;53.686;9.158;2023-05-19T09:07:47;10.83;;;4.00;;
20758;SDS011;10539;53.686;9.158;2023-05-19T09:10:13;6.13;;;2.90;;
20758;SDS011;10539;53.686;9.158;2023-05-19T09:12:44;7.40;;;3.07;;
20758;SDS011;10539;53.686;9.158;2023-05-19T09:15:12;12.97;;;3.17;;
20758;SDS011;10539;53.686;9.158;2023-05-19T09:17:40;10.40;;;2.90;;
20758;SDS011;10539;53.686;9.158;2023-05-19T09:20:06;8.57;;;2.70;;
20758;SDS011;10539;53.686;9.158;2023-05-19T09:22:41;8.73;;;3.00;;
20758;SDS011;10539;53.686;9.158;2023-05-19T09:25:23;10.27;;;3.33;;
20758;SDS011;10539;53.686;9.158;2023-05-19T09:27:50;7.90;;;2.60;;
20758;SDS011;10539;53.686;9.158;2023-05-19T09:30:18;12.13;;;2.43;;
20758;SDS011;10539;53.686;9.158;2023-05-19T09:32:44;4.70;;;2.40;;
20758;SDS011;10539;53.686;9.158;2023-05-19T09:35:10;12.00;;;3.40;;
20758;SDS011;10539;53.686;9.158;2023-05-19T09:37:40;11.47;;;3.20;;
20758;SDS011;10539;53.686;9.158;2023-05-19T09:40:12;8.37;;;2.03;;
20758;SDS011;10539;53.686;9.158;2023-05-19T09:42:39;8.00;;;2.70;;
20758;SDS011;10539;53.686;9.158;2023-05-19T09:45:06;9.13;;;2.70;;
20758;SDS011;10539;53.686;9.158;2023-05-19T09:47:34;8.40;;;2.43;;
20758;SDS011;10539;53.686;9.158;2023-05-19T09:50:04;8.93;;;2.40;;
20758;SDS011;10539;53.686;9.158;2023-05-19T09:52:37;10.63;;;2.60;;
20758;SDS011;10539;53.686;9.158;2023-05-19T09:55:05;7.37;;;2.33;;
20758;SDS011;10539;53.686;9.158;2023-05-19T09:57:35;9.20;;;2.30;;
20758;SDS011;10539;53.686;9.158;2023-05-19T10:00:02;6.93;;;2.60;;
20758;SDS011;10539;53.686;9.158;2023-05-19T10:02:44;7.43;;;2.03;;
20758;SDS011;10539;53.686;9.158;2023-05-19T10:05:14;9.90;;;2.63;;
20758;SDS011;10539;53.686;9.158;2023-05-19T10:07:44;5.13;;;1.93;;
20758;SDS011;10539;53.686;9.158;2023-05-19T10:10:12;7.13;;;2.27;;
20758;SDS011;10539;53.686;9.158;2023-05-19T10:12:39;5.67;;;1.93;;
20758;SDS011;10539;53.686;9.158;2023-05-19T10:15:09;8.83;;;2.43;;
20758;SDS011;10539;53.686;9.158;2023-05-19T10:17:37;5.23;;;1.90;;
20758;SDS011;10539;53.686;9.158;2023-05-19T10:20:04;6.77;;;2.37;;
20758;SDS011;10539;53.686;9.158;2023-05-19T10:22:38;10.43;;;2.13;;
20758;SDS011;10539;53.686;9.158;2023-05-19T10:25:05;8.10;;;2.40;;
20758;SDS011;10539;53.686;9.158;2023-05-19T10:27:33;10.97;;;2.43;;
20758;SDS011;10539;53.686;9.158;2023-05-19T10:30:08;8.83;;;2.00;;
20758;SDS011;10539;53.686;9.158;2023-05-19T10:32:40;8.27;;;2.13;;
20758;SDS011;10539;53.686;9.158;2023-05-19T10:45:50;8.03;;;2.00;;
20758;SDS011;10539;53.686;9.158;2023-05-19T10:48:18;7.67;;;1.70;;
20758;SDS011;10539;53.686;9.158;2023-05-19T10:50:45;4.97;;;1.70;;
20758;SDS011;10539;53.686;9.158;2023-05-19T10:53:15;7.47;;;1.83;;
20758;SDS011;10539;53.686;9.158;2023-05-19T10:55:50;11.17;;;1.87;;
20758;SDS011;10539;53.686;9.158;2023-05-19T10:58:36;6.17;;;1.80;;
20758;SDS011;10539;53.686;9.158;2023-05-19T11:01:06;6.53;;;2.00;;
20758;SDS011;10539;53.686;9.158;2023-05-19T11:06:20;4.97;;;1.73;;
20758;SDS011;10539;53.686;9.158;2023-05-19T11:08:59;10.20;;;2.33;;
20758;SDS011;10539;53.686;9.158;2023-05-19T11:11:43;7.30;;;1.80;;
20758;SDS011;10539;53.686;9.158;2023-05-19T11:14:20;7.50;;;2.20;;
20758;SDS011;10539;53.686;9.158;2023-05-19T11:16:49;9.03;;;1.83;;
20758;SDS011;10539;53.686;9.158;2023-05-19T11:19:24;9.63;;;2.20;;
20758;SDS011;10539;53.686;9.158;2023-05-19T11:21:54;6.60;;;1.90;;
20758;SDS011;10539;53.686;9.158;2023-05-19T11:24:37;9.87;;;2.20;;
20758;SDS011;10539;53.686;9.158;2023-05-19T11:27:30;7.00;;;1.90;;
20758;SDS011;10539;53.686;9.158;2023-05-19T11:32:29;5.60;;;1.70;;
20758;SDS011;10539;53.686;9.158;2023-05-19T11:34:57;6.93;;;1.67;;
20758;SDS011;10539;53.686;9.158;2023-05-19T11:37:24;6.30;;;1.83;;
20758;SDS011;10539;53.686;9.158;2023-05-19T11:39:50;7.73;;;1.97;;
20758;SDS011;10539;53.686;9.158;2023-05-19T11:42:17;9.80;;;2.63;;
20758;SDS011;10539;53.686;9.158;2023-05-19T11:44:43;6.67;;;1.93;;
20758;SDS011;10539;53.686;9.158;2023-05-19T11:47:15;8.73;;;2.63;;
20758;SDS011;10539;53.686;9.158;2023-05-19T11:49:46;6.93;;;1.90;;
20758;SDS011;10539;53.686;9.158;2023-05-19T11:52:13;12.07;;;2.37;;
20758;SDS011;10539;53.686;9.158;2023-05-19T11:54:43;6.20;;;2.20;;
20758;SDS011;10539;53.686;9.158;2023-05-19T11:57:26;5.57;;;2.30;;
20758;SDS011;10539;53.686;9.158;2023-05-19T11:59:53;5.77;;;1.83;;
20758;SDS011;10539;53.686;9.158;2023-05-19T12:02:23;7.87;;;2.03;;
20758;SDS011;10539;53.686;9.158;2023-05-19T12:04:55;5.77;;;2.53;;
20758;SDS011;10539;53.686;9.158;2023-05-19T12:07:24;9.93;;;2.17;;
20758;SDS011;10539;53.686;9.158;2023-05-19T12:09:51;8.57;;;2.20;;
20758;SDS011;10539;53.686;9.158;2023-05-19T12:12:19;6.40;;;2.10;;
20758;SDS011;10539;53.686;9.158;2023-05-19T12:14:47;5.23;;;2.07;;
20758;SDS011;10539;53.686;9.158;2023-05-19T12:17:15;10.93;;;2.33;;
20758;SDS011;10539;53.686;9.158;2023-05-19T12:19:43;8.80;;;2.10;;
20758;SDS011;10539;53.686;9.158;2023-05-19T12:22:12;5.73;;;2.07;;
20758;SDS011;10539;53.686;9.158;2023-05-19T12:24:39;9.30;;;2.13;;
20758;SDS011;10539;53.686;9.158;2023-05-19T12:27:10;6.70;;;1.47;;
20758;SDS011;10539;53.686;9.158;2023-05-19T12:29:41;5.43;;;2.00;;
20758;SDS011;10539;53.686;9.158;2023-05-19T12:32:07;7.20;;;2.30;;
20758;SDS011;10539;53.686;9.158;2023-05-19T12:34:34;8.23;;;2.37;;
20758;SDS011;10539;53.686;9.158;2023-05-19T12:37:01;5.77;;;2.03;;
20758;SDS011;10539;53.686;9.158;2023-05-19T12:39:28;7.27;;;1.50;;
20758;SDS011;10539;53.686;9.158;2023-05-19T12:41:59;5.70;;;1.73;;
20758;SDS011;10539;53.686;9.158;2023-05-19T12:44:26;8.27;;;1.97;;
20758;SDS011;10539;53.686;9.158;2023-05-19T12:46:52;3.73;;;1.80;;
20758;SDS011;10539;53.686;9.158;2023-05-19T12:49:17;6.40;;;1.70;;
20758;SDS011;10539;53.686;9.158;2023-05-19T12:51:50;6.30;;;1.97;;
20758;SDS011;10539;53.686;9.158;2023-05-19T12:54:20;6.50;;;2.23;;
20758;SDS011;10539;53.686;9.158;2023-05-19T12:56:49;7.20;;;1.73;;
20758;SDS011;10539;53.686;9.158;2023-05-19T12:59:25;5.77;;;1.87;;
20758;SDS011;10539;53.686;9.158;2023-05-19T13:01:57;6.80;;;1.63;;
20758;SDS011;10539;53.686;9.158;2023-05-19T13:04:26;5.43;;;1.60;;
20758;SDS011;10539;53.686;9.158;2023-05-19T13:06:52;4.63;;;1.83;;
20758;SDS011;10539;53.686;9.158;2023-05-19T13:09:18;7.73;;;1.90;;
20758;SDS011;10539;53.686;9.158;2023-05-19T13:11:45;4.17;;;1.83;;
20758;SDS011;10539;53.686;9.158;2023-05-19T13:14:16;10.20;;;1.80;;
20758;SDS011;10539;53.686;9.158;2023-05-19T13:16:45;7.20;;;2.20;;
20758;SDS011;10539;53.686;9.158;2023-05-19T13:19:15;8.23;;;2.87;;
20758;SDS011;10539;53.686;9.158;2023-05-19T13:21:42;5.17;;;1.53;;
20758;SDS011;10539;53.686;9.158;2023-05-19T13:24:11;5.03;;;1.80;;
20758;SDS011;10539;53.686;9.158;2023-05-19T13:26:37;6.23;;;1.70;;
20758;SDS011;10539;53.686;9.158;2023-05-19T13:29:03;4.70;;;1.53;;
20758;SDS011;10539;53.686;9.158;2023-05-19T13:31:29;6.33;;;1.97;;
20758;SDS011;10539;53.686;9.158;2023-05-19T13:33:55;7.23;;;1.87;;
20758;SDS011;10539;53.686;9.158;2023-05-19T13:36:21;7.10;;;1.83;;
20758;SDS011;10539;53.686;9.158;2023-05-19T13:38:46;5.23;;;1.47;;
20758;SDS011;10539;53.686;9.158;2023-05-19T13:41:12;5.17;;;1.63;;
20758;SDS011;10539;53.686;9.158;2023-05-19T13:43:38;5.63;;;1.60;;
20758;SDS011;10539;53.686;9.158;2023-05-19T13:46:03;4.60;;;1.70;;
20758;SDS011;10539;53.686;9.158;2023-05-19T13:48:30;7.40;;;1.80;;
20758;SDS011;10539;53.686;9.158;2023-05-19T13:50:55;6.33;;;1.80;;
20758;SDS011;10539;53.686;9.158;2023-05-19T13:53:21;5.97;;;1.67;;
20758;SDS011;10539;53.686;9.158;2023-05-19T13:55:47;4.40;;;1.60;;
20758;SDS011;10539;53.686;9.158;2023-05-19T13:58:13;4.70;;;1.93;;
20758;SDS011;10539;53.686;9.158;2023-05-19T14:00:40;4.07;;;1.37;;
20758;SDS011;10539;53.686;9.158;2023-05-19T14:03:06;8.13;;;2.07;;
20758;SDS011;10539;53.686;9.158;2023-05-19T14:05:32;4.63;;;1.70;;
20758;SDS011;10539;53.686;9.158;2023-05-19T14:07:58;6.17;;;1.57;;
20758;SDS011;10539;53.686;9.158;2023-05-19T14:10:25;4.20;;;1.37;;
20758;SDS011;10539;53.686;9.158;2023-05-19T14:12:50;7.53;;;1.40;;
20758;SDS011;10539;53.686;9.158;2023-05-19T14:15:21;9.80;;;1.50;;
20758;SDS011;10539;53.686;9.158;2023-05-19T14:17:46;5.30;;;1.50;;
20758;SDS011;10539;53.686;9.158;2023-05-19T14:20:13;3.83;;;1.50;;
20758;SDS011;10539;53.686;9.158;2023-05-19T14:22:39;3.93;;;1.30;;
20758;SDS011;10539;53.686;9.158;2023-05-19T14:25:04;5.27;;;1.50;;
20758;SDS011;10539;53.686;9.158;2023-05-19T14:27:30;5.13;;;1.50;;
20758;SDS011;10539;53.686;9.158;2023-05-19T14:29:56;3.33;;;1.70;;
20758;SDS011;10539;53.686;9.158;2023-05-19T14:32:22;3.17;;;1.30;;
20758;SDS011;10539;53.686;9.158;2023-05-19T14:34:47;4.27;;;1.43;;
20758;SDS011;10539;53.686;9.158;2023-05-19T14:37:17;3.43;;;2.13;;
20758;SDS011;10539;53.686;9.158;2023-05-19T14:39:43;5.47;;;2.00;;
20758;SDS011;10539;53.686;9.158;2023-05-19T14:42:09;5.33;;;1.60;;
20758;SDS011;10539;53.686;9.158;2023-05-19T14:44:35;5.90;;;1.70;;
20758;SDS011;10539;53.686;9.158;2023-05-19T14:47:01;3.83;;;1.30;;
20758;SDS011;10539;53.686;9.158;2023-05-19T14:49:28;4.83;;;1.80;;
20758;SDS011;10539;53.686;9.158;2023-05-19T14:51:54;3.33;;;1.00;;
20758;SDS011;10539;53.686;9.158;2023-05-19T14:54:20;3.20;;;1.13;;
20758;SDS011;10539;53.686;9.158;2023-05-19T14:56:46;2.97;;;1.20;;
20758;SDS011;10539;53.686;9.158;2023-05-19T14:59:11;3.53;;;1.10;;
20758;SDS011;10539;53.686;9.158;2023-05-19T15:01:37;2.93;;;1.20;;
20758;SDS011;10539;53.686;9.158;2023-05-19T15:04:03;2.63;;;1.03;;
20758;SDS011;10539;53.686;9.158;2023-05-19T15:06:29;4.97;;;1.23;;
20758;SDS011;10539;53.686;9.158;2023-05-19T15:08:55;3.73;;;1.30;;
20758;SDS011;10539;53.686;9.158;2023-05-19T15:11:21;7.53;;;1.13;;
20758;SDS011;10539;53.686;9.158;2023-05-19T15:13:46;7.33;;;1.70;;
20758;SDS011;10539;53.686;9.158;2023-05-19T15:16:12;5.23;;;1.40;;